Antelope, CA

12:03 AM PDT on September 03, 2014 (GMT -0700)
Firestone, Antelope, CA | Change Station
CLOSE
Current Station
Personal Weather Station
Location: Antelope, CA
Elevation: 155 ft
Nearby Weather Stations

Elev 155 ft 38.71 °N, 121.34 °W | Updated 2 minutes ago

Clear
Clear
63.9 °F
Feels Like 63.9 °F
N
3.0
Wind Variable Wind from ESE
Gusts 4.0 mph

Today
High -- | Low -- °F
--% Chance of Precip.
Yesterday
High -- | Low -- °F
Precip. -- in
6:36 AM 7:32 PM
First Quarter, 59% visible
Pressure 29.74 in
Visibility 10.0 miles
Clouds Clear
Dew Point 56 °F
Humidity 76%
Rainfall 0.00 in
Snow Depth Not available.
UV 0 out of 12
Pollen 8.60 out of 12
Ozone Good
PM2.5 Moderate
Flu Activity Not available.
METAR KMHR 030545Z 17006KT 10SM SKC 15/13 A2974

More Conditions Fewer Conditions

Pressure 29.74 in
Visibility 10.0 miles
Clouds Clear
Dew Point 56 °F
Humidity 76%
Rainfall 0.00 in
Snow Depth Not available.
UV 0 out of 12
Pollen 8.60 out of 12
Ozone Good
PM2.5 Moderate
Flu Activity Not available.
METAR KMHR 030545Z 17006KT 10SM SKC 15/13 A2974

More Conditions Fewer Conditions

10-Day Weather Forecast

Almanac

Astronomy

Sep. 03, 2014 Rise Set
Actual Time 6:36 AM PDT 7:32 PM PDT
Civil Twilight 6:09 AM PDT 7:59 PM PDT
Nautical Twilight 5:37 AM PDT 8:31 PM PDT
Astronomical Twilight 5:03 AM PDT 9:04 PM PDT
Moon 3:17 PM PDT 12:37 AM PDT
Length of Visible Light 13h 50m
Length of Day
12h 55m
Tomorrow will be 2m 25s shorter.
First Quarter, 59% of the Moon is Illuminated
Today
First Quarter
Sep 8
Full
Sep 15
Last Quarter
Sep 24
New
Oct 1
First Quarter

Community

WunderPhotos

Upload Photos

1,749,888 photos uploaded!

Nearby

Air Quality

  Air Quality AQ Index Pollutant
Yesterday Moderate
PM2.5
Yesterday Good
OZONE
Current Moderate
PM2.5
Current Good
OZONE
Tuesday Moderate
OZONE
Wednesday Moderate
OZONE
Thursday Moderate
OZONE
Friday Good
OZONE
Saturday Good
OZONE
Sunday Good
OZONE

Snow Depth

Station Depth Elevation
CSS Lab 3 in 6900 ft
Echo Peak 0 in 7800 ft
Fallen Leaf 0 in 6300 ft
Tahoe City Cross 0 in 6750 ft
Blue Lakes 0 in 8000 ft

Earthquake Activity

City Distance Mag. Time & Date
Cobb, California 76 miles 2.5 12:00 PM PDT
2014-09-02
Yountville, California 60 miles 2.6 1:15 PM PDT
2014-09-01
Gilroy, California 119 miles 3.4 9:10 AM PDT
2014-09-01
Green Valley, California 53 miles 2.5 6:37 AM PDT
2014-08-31
Minimum magnitude displayed is 2.5.

Coastal Water Temperatures

Place Temperature
No Stations Reporting

Nearby Weather Stations